createdAt,value
2023-01-29T00:00:22.972Z,29.00
2023-01-29T00:01:22.959Z,26.90
2023-01-29T00:02:23.011Z,26.50
2023-01-29T00:03:22.959Z,28.80
2023-01-29T00:04:22.950Z,26.40
2023-01-29T00:05:28.174Z,26.30
2023-01-29T00:06:23.881Z,27.00
2023-01-29T00:07:22.874Z,28.90
2023-01-29T00:08:22.865Z,28.40
2023-01-29T00:09:22.878Z,26.90
2023-01-29T00:10:22.875Z,26.20
2023-01-29T00:11:22.851Z,27.00
2023-01-29T00:12:22.815Z,28.70
2023-01-29T00:13:22.865Z,29.80
2023-01-29T00:14:22.775Z,28.50
2023-01-29T00:15:37.444Z,29.10
2023-01-29T00:16:22.896Z,28.40
2023-01-29T00:17:22.850Z,25.70
2023-01-29T00:18:22.753Z,27.30
2023-01-29T00:19:22.747Z,28.70
2023-01-29T00:20:22.789Z,30.80
2023-01-29T00:21:22.770Z,26.60
2023-01-29T00:22:22.686Z,40.90
2023-01-29T00:23:22.704Z,38.50
2023-01-29T00:24:22.739Z,43.60
2023-01-29T00:25:22.687Z,41.40
2023-01-29T00:26:22.683Z,55.80
2023-01-29T00:27:22.662Z,43.10
2023-01-29T00:28:22.658Z,83.70
2023-01-29T00:29:22.678Z,75.70
2023-01-29T00:30:22.620Z,66.30
2023-01-29T00:31:22.742Z,43.60
2023-01-29T00:32:22.648Z,38.50
2023-01-29T00:33:22.593Z,29.70
2023-01-29T00:34:22.564Z,29.30
2023-01-29T00:35:22.604Z,31.50
2023-01-29T00:36:22.581Z,28.80
2023-01-29T00:37:22.552Z,28.50
2023-01-29T00:38:22.506Z,28.60
2023-01-29T00:39:27.746Z,31.80
2023-01-29T00:40:23.614Z,28.70
2023-01-29T00:41:22.505Z,27.50
2023-01-29T00:42:22.490Z,29.60
2023-01-29T00:43:22.485Z,30.60
2023-01-29T00:44:22.473Z,31.10
2023-01-29T00:45:22.475Z,27.80
2023-01-29T00:46:22.494Z,29.80
2023-01-29T00:47:22.462Z,29.70
2023-01-29T00:48:22.431Z,29.10
2023-01-29T00:49:22.412Z,28.20
2023-01-29T00:50:22.366Z,29.80
2023-01-29T00:51:22.368Z,30.80
2023-01-29T00:52:22.383Z,31.30
2023-01-29T00:53:22.346Z,28.30
2023-01-29T00:54:22.353Z,31.40
2023-01-29T00:55:22.347Z,30.40
2023-01-29T00:56:22.315Z,29.40
2023-01-29T00:57:22.297Z,28.10
2023-01-29T00:58:22.331Z,28.50
2023-01-29T00:59:22.275Z,29.00
2023-01-29T01:00:22.297Z,30.50
2023-01-29T01:01:22.273Z,29.80
2023-01-29T01:02:22.284Z,28.70
2023-01-29T01:03:22.227Z,29.90
2023-01-29T01:04:22.264Z,30.10
2023-01-29T01:05:22.227Z,30.10
2023-01-29T01:06:22.213Z,29.00
2023-01-29T01:07:22.226Z,27.70
2023-01-29T01:08:22.170Z,28.90
2023-01-29T01:09:22.198Z,30.10
2023-01-29T01:10:22.241Z,29.20
2023-01-29T01:11:22.140Z,28.70
2023-01-29T01:12:22.144Z,27.90
2023-01-29T01:13:22.118Z,27.70
2023-01-29T01:14:22.220Z,29.10
2023-01-29T01:15:22.126Z,29.80
2023-01-29T01:16:22.137Z,28.90
2023-01-29T01:17:22.097Z,29.30
2023-01-29T01:18:22.084Z,29.90
2023-01-29T01:19:22.162Z,29.00
2023-01-29T01:20:22.045Z,28.40
2023-01-29T01:21:22.027Z,30.30
2023-01-29T01:22:22.007Z,30.50
2023-01-29T01:23:22.026Z,31.10
2023-01-29T01:24:22.038Z,29.00
2023-01-29T01:25:22.063Z,30.10
2023-01-29T01:26:21.975Z,29.40
2023-01-29T01:27:21.983Z,28.40
2023-01-29T01:28:21.976Z,29.60
2023-01-29T01:29:21.968Z,28.90
2023-01-29T01:30:22.029Z,30.10
2023-01-29T01:31:22.077Z,30.30
2023-01-29T01:32:21.898Z,28.10
2023-01-29T01:33:21.887Z,28.40
2023-01-29T01:34:21.902Z,28.90
2023-01-29T01:35:21.918Z,30.80
2023-01-29T01:36:21.920Z,28.40
2023-01-29T01:37:21.849Z,29.60
2023-01-29T01:38:21.830Z,30.90
2023-01-29T01:39:21.846Z,28.50
2023-01-29T01:40:21.801Z,31.10
2023-01-29T01:41:21.805Z,31.50
2023-01-29T01:42:21.846Z,30.20
2023-01-29T01:43:21.779Z,29.00
2023-01-29T01:44:21.749Z,33.30
2023-01-29T01:45:21.750Z,31.50
2023-01-29T01:46:21.736Z,28.50
2023-01-29T01:47:21.776Z,30.10
2023-01-29T01:48:21.817Z,32.70
2023-01-29T01:49:21.724Z,31.50
2023-01-29T01:50:21.718Z,28.60
2023-01-29T01:51:21.785Z,30.50
2023-01-29T01:52:21.666Z,28.90
2023-01-29T01:53:21.724Z,28.90
2023-01-29T01:54:21.679Z,32.50
2023-01-29T01:55:21.686Z,30.00
2023-01-29T01:56:21.641Z,29.90
2023-01-29T01:57:21.600Z,28.40
2023-01-29T01:58:21.667Z,31.00
2023-01-29T01:59:21.617Z,30.40
2023-01-29T02:00:21.600Z,30.30
2023-01-29T02:01:22.851Z,30.10
2023-01-29T02:02:21.647Z,29.00
2023-01-29T02:03:21.604Z,29.00
2023-01-29T02:04:21.549Z,30.70
2023-01-29T02:05:21.557Z,31.40
2023-01-29T02:06:21.541Z,28.80
2023-01-29T02:07:21.518Z,28.30
2023-01-29T02:08:21.518Z,29.50
2023-01-29T02:09:21.512Z,29.40
2023-01-29T02:10:21.486Z,30.60
2023-01-29T02:11:21.491Z,28.80
2023-01-29T02:12:21.499Z,31.10
2023-01-29T02:13:21.438Z,31.70
2023-01-29T02:14:21.410Z,28.70
2023-01-29T02:15:21.413Z,30.40
2023-01-29T02:16:21.477Z,30.00
2023-01-29T02:17:21.442Z,30.00
2023-01-29T02:18:21.382Z,31.70
2023-01-29T02:19:21.370Z,31.30
2023-01-29T02:20:21.363Z,29.70
2023-01-29T02:21:21.440Z,29.90
2023-01-29T02:22:21.321Z,28.90
2023-01-29T02:23:21.348Z,31.40
2023-01-29T02:24:21.394Z,29.50
2023-01-29T02:25:21.291Z,29.20
2023-01-29T02:26:21.329Z,29.90
2023-01-29T02:27:21.281Z,31.30
2023-01-29T02:28:21.279Z,28.90
2023-01-29T02:29:21.287Z,29.20
2023-01-29T02:30:21.257Z,30.10
2023-01-29T02:31:21.327Z,29.50
2023-01-29T02:32:21.281Z,31.00
2023-01-29T02:33:21.233Z,32.20
2023-01-29T02:34:21.185Z,31.30
2023-01-29T02:35:21.182Z,31.90
2023-01-29T02:36:21.219Z,30.60
2023-01-29T02:37:21.162Z,29.10
2023-01-29T02:38:21.168Z,34.10
2023-01-29T02:39:21.151Z,36.30
2023-01-29T02:40:21.124Z,35.60
2023-01-29T02:41:21.175Z,31.30
2023-01-29T02:42:21.118Z,31.70
2023-01-29T02:43:21.092Z,31.10
2023-01-29T02:44:21.119Z,31.30
2023-01-29T02:45:21.122Z,31.90
2023-01-29T02:46:21.044Z,30.70
2023-01-29T02:47:21.125Z,30.00
2023-01-29T02:48:21.051Z,30.20
2023-01-29T02:49:21.050Z,29.90
2023-01-29T02:50:21.122Z,29.90
2023-01-29T02:51:21.029Z,28.50
2023-01-29T02:52:20.981Z,30.10
2023-01-29T02:53:20.988Z,29.70
2023-01-29T02:54:20.981Z,28.20
2023-01-29T02:55:20.955Z,31.40
2023-01-29T02:56:21.160Z,30.60
2023-01-29T02:57:20.933Z,31.40
2023-01-29T02:58:20.943Z,30.00
2023-01-29T02:59:20.946Z,30.50
2023-01-29T03:00:20.922Z,31.50
2023-01-29T03:01:20.937Z,31.80
2023-01-29T03:02:21.045Z,30.90
2023-01-29T03:03:20.881Z,31.40
2023-01-29T03:04:20.843Z,30.70
2023-01-29T03:05:20.872Z,32.30
2023-01-29T03:06:20.841Z,29.70
2023-01-29T03:07:20.821Z,31.80
2023-01-29T03:08:20.900Z,29.00
2023-01-29T03:09:20.808Z,31.20
2023-01-29T03:10:20.775Z,31.30
2023-01-29T03:11:20.773Z,31.90
2023-01-29T03:12:20.776Z,31.00
2023-01-29T03:13:20.754Z,30.40
2023-01-29T03:14:20.837Z,31.80
2023-01-29T03:15:20.739Z,30.00
2023-01-29T03:16:20.731Z,32.10
2023-01-29T03:17:20.704Z,30.90
2023-01-29T03:18:20.710Z,30.20
2023-01-29T03:19:20.695Z,30.70
2023-01-29T03:20:20.775Z,30.30
2023-01-29T03:21:20.681Z,32.50
2023-01-29T03:22:20.634Z,31.80
2023-01-29T03:23:20.670Z,31.80
2023-01-29T03:24:20.627Z,31.60
2023-01-29T03:25:20.614Z,32.80
2023-01-29T03:26:20.633Z,34.60
2023-01-29T03:27:20.596Z,30.90
2023-01-29T03:28:20.575Z,30.80
2023-01-29T03:29:20.571Z,32.40
2023-01-29T03:30:20.593Z,34.90
2023-01-29T03:31:20.618Z,30.70
2023-01-29T03:32:20.556Z,29.90
2023-01-29T03:33:20.528Z,31.80
2023-01-29T03:34:20.505Z,32.20
2023-01-29T03:35:22.212Z,30.20
2023-01-29T03:36:20.514Z,33.10
2023-01-29T03:37:20.493Z,31.00
2023-01-29T03:38:22.164Z,32.20
2023-01-29T03:39:20.482Z,33.40
2023-01-29T03:40:20.453Z,33.40
2023-01-29T03:41:20.440Z,32.20
2023-01-29T03:42:20.606Z,33.50
2023-01-29T03:43:20.425Z,33.10
2023-01-29T03:44:20.390Z,31.10
2023-01-29T03:45:20.421Z,32.80
2023-01-29T03:46:20.393Z,31.00
2023-01-29T03:47:20.411Z,31.70
2023-01-29T03:48:20.394Z,34.20
2023-01-29T03:49:20.365Z,33.50
2023-01-29T03:50:20.342Z,33.50
2023-01-29T03:51:20.316Z,32.90
2023-01-29T03:52:20.301Z,35.10
2023-01-29T03:53:20.346Z,31.80
2023-01-29T03:54:20.294Z,32.10
2023-01-29T03:55:20.301Z,32.10
2023-01-29T03:56:20.277Z,30.40
2023-01-29T03:57:20.247Z,30.70
2023-01-29T03:58:20.343Z,32.00
2023-01-29T03:59:20.254Z,34.70
2023-01-29T04:00:20.224Z,34.70
2023-01-29T04:01:20.278Z,32.50
2023-01-29T04:02:20.205Z,32.60
2023-01-29T04:03:20.203Z,35.10
2023-01-29T04:04:20.304Z,34.70
2023-01-29T04:05:20.183Z,34.70
2023-01-29T04:06:20.127Z,33.80
2023-01-29T04:07:20.138Z,35.10
2023-01-29T04:08:20.137Z,32.00
2023-01-29T04:09:20.216Z,35.30
2023-01-29T04:10:20.093Z,35.70
2023-01-29T04:11:20.134Z,34.50
2023-01-29T04:12:20.088Z,34.10
2023-01-29T04:13:20.098Z,35.00
2023-01-29T04:14:20.314Z,34.70
2023-01-29T04:15:20.064Z,34.70
2023-01-29T04:16:20.043Z,33.70
2023-01-29T04:17:20.021Z,35.60
2023-01-29T04:18:20.025Z,35.20
2023-01-29T04:19:19.999Z,34.40
2023-01-29T04:20:20.116Z,34.80
2023-01-29T04:21:20.005Z,34.90
2023-01-29T04:22:19.976Z,34.30
2023-01-29T04:23:19.987Z,34.80
2023-01-29T04:24:20.046Z,33.40
2023-01-29T04:25:19.927Z,35.40
2023-01-29T04:26:19.939Z,33.80
2023-01-29T04:27:19.949Z,36.90
2023-01-29T04:28:19.879Z,35.90
2023-01-29T04:29:19.940Z,34.40
2023-01-29T04:30:19.888Z,34.60
2023-01-29T04:31:19.921Z,36.10
2023-01-29T04:32:19.895Z,35.90
2023-01-29T04:33:19.879Z,35.80
2023-01-29T04:34:19.846Z,35.30
2023-01-29T04:35:19.817Z,36.60
2023-01-29T04:36:19.837Z,35.50
2023-01-29T04:37:19.849Z,35.40
2023-01-29T04:38:19.777Z,35.90
2023-01-29T04:39:19.775Z,36.30
2023-01-29T04:40:19.775Z,36.50
2023-01-29T04:41:19.797Z,34.70
2023-01-29T04:42:19.755Z,35.40
2023-01-29T04:43:19.793Z,36.50
2023-01-29T04:44:19.699Z,37.30
2023-01-29T04:45:19.731Z,36.90
2023-01-29T04:46:19.712Z,37.90
2023-01-29T04:47:19.716Z,35.90
2023-01-29T04:48:19.720Z,36.80
2023-01-29T04:49:19.663Z,35.60
2023-01-29T04:50:19.754Z,36.50
2023-01-29T04:51:19.640Z,38.10
2023-01-29T04:52:19.611Z,36.10
2023-01-29T04:53:19.660Z,37.40
2023-01-29T04:54:19.622Z,35.90
2023-01-29T04:55:19.622Z,34.90
2023-01-29T04:56:19.589Z,36.40
2023-01-29T04:57:19.597Z,35.30
2023-01-29T04:58:19.549Z,36.50
2023-01-29T04:59:19.624Z,36.30
2023-01-29T05:00:19.619Z,37.30
2023-01-29T05:01:19.558Z,36.60
2023-01-29T05:02:19.498Z,34.50
2023-01-29T05:03:19.517Z,37.60
2023-01-29T05:04:19.537Z,34.90
2023-01-29T05:05:19.471Z,36.60
2023-01-29T05:06:19.483Z,36.30
2023-01-29T05:07:19.456Z,34.00
2023-01-29T05:08:19.468Z,35.40
2023-01-29T05:09:19.502Z,37.00
2023-01-29T05:10:19.918Z,34.60
2023-01-29T05:11:19.455Z,36.10
2023-01-29T05:12:19.390Z,35.40
2023-01-29T05:13:19.407Z,34.70
2023-01-29T05:14:19.390Z,35.80
2023-01-29T05:15:19.566Z,36.40
2023-01-29T05:16:19.435Z,36.00
2023-01-29T05:17:19.370Z,36.20
2023-01-29T05:18:19.352Z,36.80
2023-01-29T05:19:19.338Z,36.60
2023-01-29T05:20:19.355Z,37.50
2023-01-29T05:21:19.341Z,35.10
2023-01-29T05:22:19.308Z,36.00
2023-01-29T05:23:19.277Z,35.80
2023-01-29T05:24:19.288Z,36.30
2023-01-29T05:25:19.277Z,34.80
2023-01-29T05:26:19.224Z,35.80
2023-01-29T05:27:19.309Z,37.70
2023-01-29T05:28:19.279Z,35.00
2023-01-29T05:29:19.209Z,36.00
2023-01-29T05:30:19.429Z,34.20
2023-01-29T05:31:19.291Z,34.20
2023-01-29T05:32:19.198Z,34.50
2023-01-29T05:33:19.185Z,35.00
2023-01-29T05:34:19.369Z,35.50
2023-01-29T05:35:19.177Z,35.30
2023-01-29T05:36:19.141Z,33.90
2023-01-29T05:37:19.112Z,34.50
2023-01-29T05:38:19.163Z,35.30
2023-01-29T05:39:19.091Z,33.50
2023-01-29T05:40:19.251Z,34.40
2023-01-29T05:41:19.071Z,35.80
2023-01-29T05:42:19.072Z,37.80
2023-01-29T05:43:19.070Z,34.30
2023-01-29T05:44:19.045Z,34.80
2023-01-29T05:45:19.044Z,34.40
2023-01-29T05:46:19.079Z,34.80
2023-01-29T05:47:19.008Z,33.90
2023-01-29T05:48:18.969Z,32.70
2023-01-29T05:49:18.991Z,33.90
2023-01-29T05:50:19.182Z,34.40
2023-01-29T05:51:18.986Z,34.50
2023-01-29T05:52:18.952Z,33.20
2023-01-29T05:53:18.926Z,34.40
2023-01-29T05:54:18.932Z,32.20
2023-01-29T05:55:18.904Z,33.10
2023-01-29T05:56:18.921Z,31.90
2023-01-29T05:57:18.887Z,34.00
2023-01-29T05:58:18.882Z,34.90
2023-01-29T05:59:18.885Z,32.00
2023-01-29T06:00:18.936Z,31.80
2023-01-29T06:01:18.885Z,33.80
2023-01-29T06:02:18.805Z,31.90
2023-01-29T06:03:18.864Z,33.00
2023-01-29T06:04:18.815Z,33.00
2023-01-29T06:05:18.795Z,32.90
2023-01-29T06:06:18.765Z,31.10
2023-01-29T06:07:18.814Z,32.10
2023-01-29T06:08:18.773Z,31.30
2023-01-29T06:09:18.781Z,30.90
2023-01-29T06:10:19.094Z,32.60
2023-01-29T06:11:18.804Z,31.70
2023-01-29T06:12:18.729Z,30.50
2023-01-29T06:13:18.761Z,31.20
2023-01-29T06:14:18.714Z,31.60
2023-01-29T06:15:18.667Z,30.80
2023-01-29T06:16:18.750Z,31.20
2023-01-29T06:17:18.703Z,31.70
2023-01-29T06:18:18.655Z,31.80
2023-01-29T06:19:18.644Z,30.20
2023-01-29T06:20:19.016Z,30.80
2023-01-29T06:21:20.127Z,30.10
2023-01-29T06:22:18.606Z,31.40
2023-01-29T06:23:18.755Z,31.70
2023-01-29T06:24:18.665Z,30.90
2023-01-29T06:25:18.595Z,29.10
2023-01-29T06:26:18.556Z,29.80
2023-01-29T06:27:18.556Z,32.70
2023-01-29T06:28:18.539Z,30.20
2023-01-29T06:29:18.562Z,32.10
2023-01-29T06:30:18.815Z,30.60
2023-01-29T06:31:37.725Z,29.00
2023-01-29T06:32:19.582Z,30.30
2023-01-29T06:33:18.488Z,32.10
2023-01-29T06:34:18.530Z,29.00
2023-01-29T06:35:18.465Z,30.20
2023-01-29T06:36:18.549Z,30.40
2023-01-29T06:37:18.446Z,32.10
2023-01-29T06:38:18.429Z,30.10
2023-01-29T06:39:18.446Z,31.20
2023-01-29T06:40:18.731Z,30.80
2023-01-29T06:41:18.390Z,29.80
2023-01-29T06:42:18.403Z,30.70
2023-01-29T06:43:18.374Z,31.00
2023-01-29T06:44:18.378Z,29.30
2023-01-29T06:45:18.326Z,30.20
2023-01-29T06:46:18.364Z,28.20
2023-01-29T06:47:18.330Z,28.50
2023-01-29T06:48:18.333Z,27.50
2023-01-29T06:49:18.344Z,31.60
2023-01-29T06:50:18.550Z,30.50
2023-01-29T06:51:18.277Z,29.10
2023-01-29T06:52:18.284Z,30.10
2023-01-29T06:53:18.235Z,28.00
2023-01-29T06:54:18.262Z,31.60
2023-01-29T06:55:18.233Z,28.30
2023-01-29T06:56:18.209Z,30.70
2023-01-29T06:57:18.190Z,27.60
2023-01-29T06:58:18.189Z,29.70
2023-01-29T06:59:18.225Z,30.30
2023-01-29T07:00:18.514Z,31.50
2023-01-29T07:01:34.563Z,30.50
2023-01-29T07:02:19.177Z,30.10
2023-01-29T07:03:18.141Z,30.10
2023-01-29T07:04:18.166Z,27.20
2023-01-29T07:05:18.147Z,29.40
2023-01-29T07:06:19.049Z,29.00
2023-01-29T07:07:18.090Z,29.70
2023-01-29T07:08:18.080Z,27.90
2023-01-29T07:09:18.079Z,27.70
2023-01-29T07:10:18.534Z,29.40
2023-01-29T07:11:18.038Z,29.70
2023-01-29T07:12:18.056Z,29.80
2023-01-29T07:13:18.127Z,29.20
2023-01-29T07:14:18.012Z,27.70
2023-01-29T07:15:17.996Z,28.00
2023-01-29T07:16:18.018Z,29.40
2023-01-29T07:17:17.961Z,30.70
2023-01-29T07:18:17.971Z,29.30
2023-01-29T07:19:17.975Z,28.70
2023-01-29T07:20:18.236Z,30.40
2023-01-29T07:21:17.947Z,29.00
2023-01-29T07:22:17.983Z,30.30
2023-01-29T07:23:17.923Z,28.40
2023-01-29T07:24:17.959Z,28.70
2023-01-29T07:25:17.900Z,30.10
2023-01-29T07:26:17.911Z,28.70
2023-01-29T07:27:17.901Z,30.80
2023-01-29T07:28:17.852Z,28.70
2023-01-29T07:29:17.838Z,29.00
2023-01-29T07:30:18.298Z,29.20
2023-01-29T07:31:18.018Z,29.10
2023-01-29T07:32:17.843Z,32.10
2023-01-29T07:33:17.860Z,29.70
2023-01-29T07:34:17.817Z,27.10
2023-01-29T07:35:17.760Z,29.10
2023-01-29T07:36:17.809Z,29.10
2023-01-29T07:37:17.777Z,28.60
2023-01-29T07:38:18.085Z,29.10
2023-01-29T07:39:17.754Z,30.30
2023-01-29T07:40:17.957Z,28.60
2023-01-29T07:41:17.701Z,31.00
2023-01-29T07:42:17.693Z,30.90
2023-01-29T07:43:17.671Z,28.80
2023-01-29T07:44:17.778Z,28.60
2023-01-29T07:45:17.677Z,28.40
2023-01-29T07:46:17.731Z,29.00
2023-01-29T07:47:17.650Z,28.60
2023-01-29T07:48:17.657Z,28.40
2023-01-29T07:49:52.841Z,30.30
2023-01-29T07:50:17.886Z,28.80
2023-01-29T07:51:24.617Z,28.20
2023-01-29T07:52:17.609Z,30.30
2023-01-29T07:53:17.591Z,29.60
2023-01-29T07:54:17.680Z,28.90
2023-01-29T07:55:17.561Z,29.60
2023-01-29T07:56:17.567Z,29.40
2023-01-29T07:57:17.531Z,27.90
2023-01-29T07:58:17.550Z,29.00
2023-01-29T07:59:17.517Z,28.30
2023-01-29T08:00:17.873Z,28.80
2023-01-29T08:01:17.572Z,29.20
2023-01-29T08:02:17.506Z,27.90
2023-01-29T08:03:17.450Z,29.20
2023-01-29T08:04:17.472Z,30.70
2023-01-29T08:05:17.646Z,29.50
2023-01-29T08:06:17.458Z,30.00
2023-01-29T08:07:17.405Z,30.30
2023-01-29T08:08:17.408Z,30.60
2023-01-29T08:09:17.404Z,27.90
2023-01-29T08:10:17.759Z,27.70
2023-01-29T08:11:17.474Z,27.60
2023-01-29T08:12:17.364Z,29.00
2023-01-29T08:13:17.352Z,30.00
2023-01-29T08:14:17.372Z,28.40
2023-01-29T08:15:17.342Z,29.00
2023-01-29T08:16:17.346Z,30.00
2023-01-29T08:17:17.331Z,28.20
2023-01-29T08:18:17.288Z,28.50
2023-01-29T08:19:17.293Z,26.60
2023-01-29T08:20:17.639Z,28.30
2023-01-29T08:21:17.273Z,27.70
2023-01-29T08:22:17.246Z,29.70
2023-01-29T08:23:17.256Z,27.80
2023-01-29T08:24:17.328Z,28.00
2023-01-29T08:25:17.225Z,28.70
2023-01-29T08:26:17.244Z,28.40
2023-01-29T08:27:17.176Z,30.30
2023-01-29T08:28:17.410Z,28.00
2023-01-29T08:29:17.167Z,29.70
2023-01-29T08:30:52.853Z,28.80
2023-01-29T08:31:17.149Z,27.90
2023-01-29T08:32:17.163Z,26.50
2023-01-29T08:33:19.439Z,28.10
2023-01-29T08:34:17.163Z,29.90
2023-01-29T08:35:17.604Z,28.80
2023-01-29T08:36:17.068Z,29.80
2023-01-29T08:37:17.103Z,28.40
2023-01-29T08:38:17.060Z,29.50
2023-01-29T08:39:17.090Z,27.60
2023-01-29T08:40:17.259Z,28.70
2023-01-29T08:41:17.062Z,28.10
2023-01-29T08:42:17.037Z,27.20
2023-01-29T08:43:17.008Z,29.60
2023-01-29T08:44:17.004Z,27.10
2023-01-29T08:45:17.086Z,27.80
2023-01-29T08:46:17.021Z,29.40
2023-01-29T08:47:16.964Z,28.80
2023-01-29T08:48:16.962Z,27.60
2023-01-29T08:49:16.953Z,29.10
2023-01-29T08:50:17.140Z,28.50
2023-01-29T08:51:16.970Z,29.00
2023-01-29T08:52:16.899Z,27.90
2023-01-29T08:53:16.892Z,29.00
2023-01-29T08:54:16.899Z,27.90
2023-01-29T08:55:17.262Z,30.10
2023-01-29T08:56:16.890Z,28.30
2023-01-29T08:57:16.883Z,27.60
2023-01-29T08:58:16.868Z,28.20
2023-01-29T08:59:16.833Z,28.10
2023-01-29T09:00:17.165Z,31.60
2023-01-29T09:01:16.855Z,29.20
2023-01-29T09:02:16.992Z,28.90
2023-01-29T09:03:16.785Z,29.70
2023-01-29T09:04:16.788Z,30.70
2023-01-29T09:05:17.012Z,30.60
2023-01-29T09:06:16.758Z,31.70
2023-01-29T09:07:16.770Z,28.80
2023-01-29T09:08:16.777Z,29.80
2023-01-29T09:09:16.724Z,31.00
2023-01-29T09:10:16.716Z,28.00
2023-01-29T09:11:16.690Z,26.60
2023-01-29T09:12:16.673Z,31.50
2023-01-29T09:13:16.711Z,26.90
2023-01-29T09:14:16.651Z,27.10
2023-01-29T09:15:16.917Z,28.40
2023-01-29T09:16:16.679Z,29.10
2023-01-29T09:17:16.644Z,28.70
2023-01-29T09:18:16.602Z,28.40
2023-01-29T09:19:16.627Z,28.40
2023-01-29T09:20:16.598Z,29.70
2023-01-29T09:21:16.577Z,27.40
2023-01-29T09:22:16.610Z,28.20
2023-01-29T09:23:16.552Z,28.60
2023-01-29T09:24:16.560Z,30.30
2023-01-29T09:25:17.156Z,28.30
2023-01-29T09:26:16.549Z,30.00
2023-01-29T09:27:16.515Z,31.80
2023-01-29T09:28:16.486Z,27.80
2023-01-29T09:29:16.491Z,28.90
2023-01-29T09:30:16.463Z,29.10
2023-01-29T09:31:16.744Z,30.90
2023-01-29T09:32:23.223Z,28.60
2023-01-29T09:33:17.459Z,30.20
2023-01-29T09:34:16.421Z,29.50
2023-01-29T09:35:16.681Z,29.30
2023-01-29T09:36:16.471Z,27.80
2023-01-29T09:37:16.430Z,28.50
2023-01-29T09:38:16.402Z,26.70
2023-01-29T09:39:16.400Z,29.50
2023-01-29T09:40:16.357Z,31.00
2023-01-29T09:41:16.374Z,27.00
2023-01-29T09:42:16.323Z,27.00
2023-01-29T09:43:16.334Z,28.90
2023-01-29T09:44:16.316Z,30.40
2023-01-29T09:45:16.730Z,30.00
2023-01-29T09:46:16.351Z,28.10
2023-01-29T09:47:16.312Z,29.60
2023-01-29T09:48:16.257Z,29.40
2023-01-29T09:49:16.255Z,29.20
2023-01-29T09:50:18.399Z,27.70
2023-01-29T09:51:16.309Z,28.60
2023-01-29T09:52:16.243Z,28.10
2023-01-29T09:53:16.206Z,28.70
2023-01-29T09:54:16.239Z,28.00
2023-01-29T09:55:16.385Z,28.20
2023-01-29T09:56:16.214Z,29.20
2023-01-29T09:57:16.184Z,30.30
2023-01-29T09:58:16.175Z,27.80
2023-01-29T09:59:16.190Z,27.80
2023-01-29T10:00:16.152Z,30.40
2023-01-29T10:01:16.225Z,30.70
2023-01-29T10:02:16.177Z,29.00
2023-01-29T10:03:16.153Z,30.30
2023-01-29T10:04:16.124Z,28.00
2023-01-29T10:05:16.452Z,28.40
2023-01-29T10:06:16.051Z,27.50
2023-01-29T10:07:16.067Z,29.00
2023-01-29T10:08:16.036Z,28.20
2023-01-29T10:09:16.068Z,28.70
2023-01-29T10:10:16.016Z,27.80
2023-01-29T10:11:16.007Z,28.80
2023-01-29T10:12:16.028Z,29.80
2023-01-29T10:13:15.986Z,29.80
2023-01-29T10:14:15.984Z,32.20
2023-01-29T10:15:16.526Z,30.80
2023-01-29T10:16:15.937Z,27.60
2023-01-29T10:17:15.957Z,29.10
2023-01-29T10:18:15.943Z,28.40
2023-01-29T10:19:16.637Z,28.60
2023-01-29T10:20:15.931Z,27.60
2023-01-29T10:21:15.928Z,28.90
2023-01-29T10:22:15.909Z,28.90
2023-01-29T10:23:15.872Z,29.70
2023-01-29T10:24:15.841Z,28.30
2023-01-29T10:25:16.223Z,28.10
2023-01-29T10:26:15.874Z,26.90
2023-01-29T10:27:15.843Z,28.00
2023-01-29T10:28:15.838Z,28.40
2023-01-29T10:29:15.780Z,28.00
2023-01-29T10:30:15.818Z,29.70
2023-01-29T10:31:15.899Z,28.30
2023-01-29T10:32:15.869Z,28.40
2023-01-29T10:33:15.800Z,28.00
2023-01-29T10:34:15.741Z,30.90
2023-01-29T10:35:15.980Z,29.50
2023-01-29T10:36:15.720Z,30.40
2023-01-29T10:37:15.720Z,30.50
2023-01-29T10:38:15.697Z,29.90
2023-01-29T10:39:15.671Z,29.70
2023-01-29T10:40:15.678Z,29.50
2023-01-29T10:41:15.677Z,30.20
2023-01-29T10:42:15.670Z,29.60
2023-01-29T10:43:15.628Z,29.80
2023-01-29T10:44:15.657Z,28.30
2023-01-29T10:45:15.989Z,27.10
2023-01-29T10:46:15.604Z,27.70
2023-01-29T10:47:15.658Z,27.10
2023-01-29T10:48:15.583Z,27.20
2023-01-29T10:49:15.578Z,27.50
2023-01-29T10:50:15.568Z,25.40
2023-01-29T10:51:15.532Z,27.60
2023-01-29T10:52:15.598Z,27.60
2023-01-29T10:53:15.539Z,27.70
2023-01-29T10:54:15.513Z,27.00
2023-01-29T10:55:15.838Z,27.30
2023-01-29T10:56:22.647Z,27.10
2023-01-29T10:57:16.462Z,26.70
2023-01-29T10:58:15.558Z,26.70
2023-01-29T10:59:15.471Z,26.30
2023-01-29T11:00:15.454Z,28.00
2023-01-29T11:01:15.495Z,28.50
2023-01-29T11:02:15.453Z,26.40
2023-01-29T11:03:27.027Z,28.40
2023-01-29T11:04:16.422Z,29.40
2023-01-29T11:05:15.739Z,27.40
2023-01-29T11:06:15.410Z,28.60
2023-01-29T11:07:15.383Z,29.40
2023-01-29T11:08:15.380Z,30.60
2023-01-29T11:09:15.334Z,29.30
2023-01-29T11:10:15.643Z,28.80
2023-01-29T11:11:15.392Z,29.60
2023-01-29T11:12:15.303Z,27.70
2023-01-29T11:13:15.288Z,28.10
2023-01-29T11:14:15.311Z,27.40
2023-01-29T11:15:15.272Z,26.60
2023-01-29T11:16:15.333Z,26.50
2023-01-29T11:17:15.308Z,26.00
2023-01-29T11:18:15.265Z,27.50
2023-01-29T11:19:15.255Z,24.80
2023-01-29T11:20:15.570Z,27.30
2023-01-29T11:21:15.209Z,26.40
2023-01-29T11:22:15.233Z,26.30
2023-01-29T11:23:15.240Z,25.80
2023-01-29T11:24:15.193Z,25.60
2023-01-29T11:25:15.158Z,25.60
2023-01-29T11:26:15.252Z,25.80
2023-01-29T11:27:15.183Z,25.60
2023-01-29T11:28:15.128Z,27.90
2023-01-29T11:29:15.144Z,27.70
2023-01-29T11:30:15.609Z,25.00
2023-01-29T11:31:15.184Z,25.40
2023-01-29T11:32:15.124Z,25.10
2023-01-29T11:33:15.083Z,26.20
2023-01-29T11:34:15.058Z,25.20
2023-01-29T11:35:15.028Z,25.60
2023-01-29T11:36:15.135Z,27.60
2023-01-29T11:37:15.007Z,26.40
2023-01-29T11:38:15.043Z,24.80
2023-01-29T11:39:14.986Z,26.70
2023-01-29T11:40:15.367Z,25.70
2023-01-29T11:41:15.042Z,26.20
2023-01-29T11:42:15.166Z,27.50
2023-01-29T11:43:14.965Z,27.00
2023-01-29T11:44:14.948Z,26.90
2023-01-29T11:45:14.945Z,27.30
2023-01-29T11:46:14.954Z,26.60
2023-01-29T11:47:15.115Z,27.20
2023-01-29T11:48:14.943Z,26.30
2023-01-29T11:49:20.874Z,27.10
2023-01-29T11:50:16.188Z,26.00
2023-01-29T11:51:14.875Z,27.30
2023-01-29T11:52:14.849Z,26.30
2023-01-29T11:53:14.885Z,26.80
2023-01-29T11:54:14.848Z,27.20
2023-01-29T11:55:14.808Z,28.10
2023-01-29T11:56:14.801Z,26.70
2023-01-29T11:57:14.852Z,26.90
2023-01-29T11:58:14.809Z,26.70
2023-01-29T11:59:14.768Z,26.30
2023-01-29T12:00:15.449Z,25.70
2023-01-29T12:01:14.731Z,26.70
2023-01-29T12:02:14.761Z,28.10
2023-01-29T12:03:14.717Z,26.70
2023-01-29T12:04:14.768Z,25.80
2023-01-29T12:05:14.697Z,27.70
2023-01-29T12:06:14.820Z,28.40
2023-01-29T12:07:14.696Z,27.30
2023-01-29T12:08:14.728Z,26.80
2023-01-29T12:09:16.096Z,26.00
2023-01-29T12:10:14.747Z,26.80
2023-01-29T12:11:14.690Z,27.10
2023-01-29T12:12:14.650Z,27.00
2023-01-29T12:13:14.635Z,26.90
2023-01-29T12:14:14.601Z,27.50
2023-01-29T12:15:14.584Z,27.10
2023-01-29T12:16:14.704Z,27.30
2023-01-29T12:17:14.552Z,25.60
2023-01-29T12:18:14.574Z,27.80
2023-01-29T12:19:14.558Z,26.50
2023-01-29T12:20:14.673Z,25.90
2023-01-29T12:21:14.549Z,27.10
2023-01-29T12:22:14.590Z,26.70
2023-01-29T12:23:14.511Z,28.70
2023-01-29T12:24:14.572Z,26.80
2023-01-29T12:25:14.499Z,29.30
2023-01-29T12:26:14.517Z,28.40
2023-01-29T12:27:14.486Z,27.60
2023-01-29T12:28:14.444Z,29.10
2023-01-29T12:29:14.451Z,28.60
2023-01-29T12:30:14.699Z,28.20
2023-01-29T12:31:14.436Z,27.40
2023-01-29T12:32:14.417Z,26.70
2023-01-29T12:33:14.393Z,28.90
2023-01-29T12:34:14.375Z,25.90
2023-01-29T12:35:14.368Z,26.30
2023-01-29T12:36:14.392Z,25.50
2023-01-29T12:37:14.364Z,26.40
2023-01-29T12:38:14.362Z,28.90
2023-01-29T12:39:14.330Z,29.40
2023-01-29T12:40:14.816Z,28.10
2023-01-29T12:41:14.315Z,24.80
2023-01-29T12:42:14.309Z,27.80
2023-01-29T12:43:14.350Z,26.40
2023-01-29T12:44:14.273Z,24.10
2023-01-29T12:45:14.244Z,27.00
2023-01-29T12:46:14.259Z,23.40
2023-01-29T12:47:16.800Z,24.50
2023-01-29T12:48:14.232Z,24.50
2023-01-29T12:49:14.232Z,26.60
2023-01-29T12:50:14.195Z,25.70
2023-01-29T12:51:14.181Z,23.20
2023-01-29T12:52:14.182Z,23.70